sensor_id;sensor_type;location;lat;lon;timestamp;P1;durP1;ratioP1;P2;durP2;ratioP2
77544;SDS011;66672;50.328;7.610;2024-02-28T00:00:12;60.80;;;39.33;;
77544;SDS011;66672;50.328;7.610;2024-02-28T00:02:38;56.05;;;36.60;;
77544;SDS011;66672;50.328;7.610;2024-02-28T00:05:03;53.80;;;38.50;;
77544;SDS011;66672;50.328;7.610;2024-02-28T00:07:28;55.20;;;37.67;;
77544;SDS011;66672;50.328;7.610;2024-02-28T00:09:55;53.20;;;37.60;;
77544;SDS011;66672;50.328;7.610;2024-02-28T00:12:22;54.10;;;35.78;;
77544;SDS011;66672;50.328;7.610;2024-02-28T00:14:50;51.33;;;36.45;;
77544;SDS011;66672;50.328;7.610;2024-02-28T00:17:15;54.90;;;37.90;;
77544;SDS011;66672;50.328;7.610;2024-02-28T00:19:40;55.58;;;38.28;;
77544;SDS011;66672;50.328;7.610;2024-02-28T00:22:05;61.78;;;38.33;;
77544;SDS011;66672;50.328;7.610;2024-02-28T00:24:31;54.15;;;35.53;;
77544;SDS011;66672;50.328;7.610;2024-02-28T00:26:56;51.78;;;36.60;;
77544;SDS011;66672;50.328;7.610;2024-02-28T00:29:21;55.03;;;36.35;;
77544;SDS011;66672;50.328;7.610;2024-02-28T00:31:46;58.17;;;36.72;;
77544;SDS011;66672;50.328;7.610;2024-02-28T00:34:11;64.10;;;39.00;;
77544;SDS011;66672;50.328;7.610;2024-02-28T00:36:37;62.72;;;39.10;;
77544;SDS011;66672;50.328;7.610;2024-02-28T00:39:02;54.75;;;36.55;;
77544;SDS011;66672;50.328;7.610;2024-02-28T00:41:29;57.53;;;37.38;;
77544;SDS011;66672;50.328;7.610;2024-02-28T00:43:54;60.70;;;38.47;;
77544;SDS011;66672;50.328;7.610;2024-02-28T00:46:19;59.45;;;37.38;;
77544;SDS011;66672;50.328;7.610;2024-02-28T00:48:44;56.65;;;38.50;;
77544;SDS011;66672;50.328;7.610;2024-02-28T00:51:09;54.38;;;36.60;;
77544;SDS011;66672;50.328;7.610;2024-02-28T00:53:34;58.15;;;38.40;;
77544;SDS011;66672;50.328;7.610;2024-02-28T00:56:00;59.10;;;37.08;;
77544;SDS011;66672;50.328;7.610;2024-02-28T00:58:25;62.60;;;38.95;;
77544;SDS011;66672;50.328;7.610;2024-02-28T01:00:52;56.95;;;35.88;;
77544;SDS011;66672;50.328;7.610;2024-02-28T01:03:17;63.22;;;37.75;;
77544;SDS011;66672;50.328;7.610;2024-02-28T01:05:43;56.42;;;36.30;;
77544;SDS011;66672;50.328;7.610;2024-02-28T01:08:08;59.05;;;37.55;;
77544;SDS011;66672;50.328;7.610;2024-02-28T01:10:33;53.08;;;37.17;;
77544;SDS011;66672;50.328;7.610;2024-02-28T01:12:59;56.58;;;36.63;;
77544;SDS011;66672;50.328;7.610;2024-02-28T01:15:24;52.45;;;36.00;;
77544;SDS011;66672;50.328;7.610;2024-02-28T01:17:49;57.45;;;36.90;;
77544;SDS011;66672;50.328;7.610;2024-02-28T01:20:14;54.92;;;37.10;;
77544;SDS011;66672;50.328;7.610;2024-02-28T01:22:40;55.83;;;38.13;;
77544;SDS011;66672;50.328;7.610;2024-02-28T01:25:05;57.92;;;37.03;;
77544;SDS011;66672;50.328;7.610;2024-02-28T01:27:31;54.58;;;36.47;;
77544;SDS011;66672;50.328;7.610;2024-02-28T01:29:56;57.00;;;38.65;;
77544;SDS011;66672;50.328;7.610;2024-02-28T01:32:22;59.70;;;39.00;;
77544;SDS011;66672;50.328;7.610;2024-02-28T01:34:47;55.35;;;36.53;;
77544;SDS011;66672;50.328;7.610;2024-02-28T01:37:12;57.85;;;36.22;;
77544;SDS011;66672;50.328;7.610;2024-02-28T01:39:37;59.75;;;37.53;;
77544;SDS011;66672;50.328;7.610;2024-02-28T01:42:03;58.53;;;36.28;;
77544;SDS011;66672;50.328;7.610;2024-02-28T01:44:28;56.42;;;37.10;;
77544;SDS011;66672;50.328;7.610;2024-02-28T01:46:53;60.47;;;37.83;;
77544;SDS011;66672;50.328;7.610;2024-02-28T01:49:21;63.80;;;38.03;;
77544;SDS011;66672;50.328;7.610;2024-02-28T01:51:46;60.05;;;37.95;;
77544;SDS011;66672;50.328;7.610;2024-02-28T01:54:11;60.47;;;38.92;;
77544;SDS011;66672;50.328;7.610;2024-02-28T01:56:37;72.72;;;47.15;;
77544;SDS011;66672;50.328;7.610;2024-02-28T01:59:03;62.63;;;37.75;;
77544;SDS011;66672;50.328;7.610;2024-02-28T02:01:28;65.80;;;36.63;;
77544;SDS011;66672;50.328;7.610;2024-02-28T02:03:54;63.85;;;37.83;;
77544;SDS011;66672;50.328;7.610;2024-02-28T02:06:19;72.15;;;41.65;;
77544;SDS011;66672;50.328;7.610;2024-02-28T02:08:44;57.53;;;36.75;;
77544;SDS011;66672;50.328;7.610;2024-02-28T02:11:09;58.70;;;38.13;;
77544;SDS011;66672;50.328;7.610;2024-02-28T02:13:35;61.47;;;37.95;;
77544;SDS011;66672;50.328;7.610;2024-02-28T02:16:00;63.88;;;38.40;;
77544;SDS011;66672;50.328;7.610;2024-02-28T02:18:25;62.00;;;38.65;;
77544;SDS011;66672;50.328;7.610;2024-02-28T02:20:52;54.95;;;36.70;;
77544;SDS011;66672;50.328;7.610;2024-02-28T02:23:19;62.50;;;38.45;;
77544;SDS011;66672;50.328;7.610;2024-02-28T02:25:45;61.95;;;38.28;;
77544;SDS011;66672;50.328;7.610;2024-02-28T02:28:10;63.72;;;38.20;;
77544;SDS011;66672;50.328;7.610;2024-02-28T02:30:35;63.53;;;38.95;;
77544;SDS011;66672;50.328;7.610;2024-02-28T02:33:01;65.00;;;38.53;;
77544;SDS011;66672;50.328;7.610;2024-02-28T02:35:26;64.78;;;38.58;;
77544;SDS011;66672;50.328;7.610;2024-02-28T02:37:51;64.38;;;38.88;;
77544;SDS011;66672;50.328;7.610;2024-02-28T02:40:16;64.05;;;38.65;;
77544;SDS011;66672;50.328;7.610;2024-02-28T02:42:41;64.40;;;39.17;;
77544;SDS011;66672;50.328;7.610;2024-02-28T02:45:07;62.65;;;38.38;;
77544;SDS011;66672;50.328;7.610;2024-02-28T02:47:32;59.47;;;38.55;;
77544;SDS011;66672;50.328;7.610;2024-02-28T02:49:57;66.68;;;39.20;;
77544;SDS011;66672;50.328;7.610;2024-02-28T02:52:22;65.18;;;37.05;;
77544;SDS011;66672;50.328;7.610;2024-02-28T02:54:47;64.90;;;39.25;;
77544;SDS011;66672;50.328;7.610;2024-02-28T02:57:13;62.50;;;38.63;;
77544;SDS011;66672;50.328;7.610;2024-02-28T02:59:38;60.22;;;38.22;;
77544;SDS011;66672;50.328;7.610;2024-02-28T03:02:03;63.28;;;38.55;;
77544;SDS011;66672;50.328;7.610;2024-02-28T03:04:29;62.88;;;37.00;;
77544;SDS011;66672;50.328;7.610;2024-02-28T03:06:54;58.60;;;37.25;;
77544;SDS011;66672;50.328;7.610;2024-02-28T03:09:19;57.40;;;36.80;;
77544;SDS011;66672;50.328;7.610;2024-02-28T03:11:44;61.08;;;36.38;;
77544;SDS011;66672;50.328;7.610;2024-02-28T03:14:09;59.03;;;37.85;;
77544;SDS011;66672;50.328;7.610;2024-02-28T03:16:41;59.03;;;37.33;;
77544;SDS011;66672;50.328;7.610;2024-02-28T03:19:07;61.47;;;37.35;;
77544;SDS011;66672;50.328;7.610;2024-02-28T03:21:32;60.25;;;36.67;;
77544;SDS011;66672;50.328;7.610;2024-02-28T03:23:57;62.42;;;37.38;;
77544;SDS011;66672;50.328;7.610;2024-02-28T03:26:22;59.83;;;37.75;;
77544;SDS011;66672;50.328;7.610;2024-02-28T03:28:48;61.47;;;37.22;;
77544;SDS011;66672;50.328;7.610;2024-02-28T03:31:13;61.67;;;38.15;;
77544;SDS011;66672;50.328;7.610;2024-02-28T03:33:38;56.00;;;38.45;;
77544;SDS011;66672;50.328;7.610;2024-02-28T03:36:03;62.15;;;37.33;;
77544;SDS011;66672;50.328;7.610;2024-02-28T03:38:28;61.25;;;38.60;;
77544;SDS011;66672;50.328;7.610;2024-02-28T03:40:54;67.75;;;40.20;;
77544;SDS011;66672;50.328;7.610;2024-02-28T03:43:19;63.22;;;38.03;;
77544;SDS011;66672;50.328;7.610;2024-02-28T03:45:44;61.63;;;37.78;;
77544;SDS011;66672;50.328;7.610;2024-02-28T03:48:10;61.65;;;37.15;;
77544;SDS011;66672;50.328;7.610;2024-02-28T03:50:35;61.75;;;38.60;;
77544;SDS011;66672;50.328;7.610;2024-02-28T03:53:00;64.20;;;37.97;;
77544;SDS011;66672;50.328;7.610;2024-02-28T03:55:25;57.65;;;37.25;;
77544;SDS011;66672;50.328;7.610;2024-02-28T03:57:50;61.13;;;37.55;;
77544;SDS011;66672;50.328;7.610;2024-02-28T04:00:17;59.97;;;38.13;;
77544;SDS011;66672;50.328;7.610;2024-02-28T04:02:42;67.18;;;37.88;;
77544;SDS011;66672;50.328;7.610;2024-02-28T04:05:07;64.80;;;37.97;;
77544;SDS011;66672;50.328;7.610;2024-02-28T04:07:33;59.83;;;37.67;;
77544;SDS011;66672;50.328;7.610;2024-02-28T04:09:58;62.25;;;37.10;;
77544;SDS011;66672;50.328;7.610;2024-02-28T04:12:23;66.22;;;38.33;;
77544;SDS011;66672;50.328;7.610;2024-02-28T04:14:49;65.95;;;37.78;;
77544;SDS011;66672;50.328;7.610;2024-02-28T04:17:14;61.78;;;37.15;;
77544;SDS011;66672;50.328;7.610;2024-02-28T04:19:39;68.13;;;39.38;;
77544;SDS011;66672;50.328;7.610;2024-02-28T04:22:04;64.78;;;39.08;;
77544;SDS011;66672;50.328;7.610;2024-02-28T04:24:29;68.57;;;39.65;;
77544;SDS011;66672;50.328;7.610;2024-02-28T04:26:55;56.30;;;36.13;;
77544;SDS011;66672;50.328;7.610;2024-02-28T04:29:20;64.40;;;38.53;;
77544;SDS011;66672;50.328;7.610;2024-02-28T04:31:45;67.88;;;39.97;;
77544;SDS011;66672;50.328;7.610;2024-02-28T04:34:10;71.95;;;38.95;;
77544;SDS011;66672;50.328;7.610;2024-02-28T04:36:35;62.15;;;38.85;;
77544;SDS011;66672;50.328;7.610;2024-02-28T04:39:01;58.00;;;37.70;;
77544;SDS011;66672;50.328;7.610;2024-02-28T04:41:27;59.90;;;36.63;;
77544;SDS011;66672;50.328;7.610;2024-02-28T04:43:52;60.95;;;37.80;;
77544;SDS011;66672;50.328;7.610;2024-02-28T04:46:18;71.72;;;40.60;;
77544;SDS011;66672;50.328;7.610;2024-02-28T04:48:43;62.88;;;37.15;;
77544;SDS011;66672;50.328;7.610;2024-02-28T04:51:08;61.47;;;35.42;;
77544;SDS011;66672;50.328;7.610;2024-02-28T04:53:33;60.53;;;36.85;;
77544;SDS011;66672;50.328;7.610;2024-02-28T04:55:59;66.05;;;37.55;;
77544;SDS011;66672;50.328;7.610;2024-02-28T04:58:24;56.70;;;37.00;;
77544;SDS011;66672;50.328;7.610;2024-02-28T05:00:49;65.85;;;38.22;;
77544;SDS011;66672;50.328;7.610;2024-02-28T05:03:15;59.95;;;37.13;;
77544;SDS011;66672;50.328;7.610;2024-02-28T05:05:40;59.63;;;38.20;;
77544;SDS011;66672;50.328;7.610;2024-02-28T05:08:06;62.53;;;38.55;;
77544;SDS011;66672;50.328;7.610;2024-02-28T05:10:31;66.43;;;36.83;;
77544;SDS011;66672;50.328;7.610;2024-02-28T05:12:56;65.88;;;38.65;;
77544;SDS011;66672;50.328;7.610;2024-02-28T05:15:21;67.88;;;37.83;;
77544;SDS011;66672;50.328;7.610;2024-02-28T05:17:49;59.03;;;36.72;;
77544;SDS011;66672;50.328;7.610;2024-02-28T05:20:15;61.30;;;37.38;;
77544;SDS011;66672;50.328;7.610;2024-02-28T05:22:40;60.30;;;36.22;;
77544;SDS011;66672;50.328;7.610;2024-02-28T05:25:07;63.20;;;37.90;;
77544;SDS011;66672;50.328;7.610;2024-02-28T05:27:32;63.60;;;36.83;;
77544;SDS011;66672;50.328;7.610;2024-02-28T05:29:58;63.03;;;37.35;;
77544;SDS011;66672;50.328;7.610;2024-02-28T05:32:23;65.72;;;37.72;;
77544;SDS011;66672;50.328;7.610;2024-02-28T05:34:48;59.50;;;37.67;;
77544;SDS011;66672;50.328;7.610;2024-02-28T05:37:15;58.38;;;34.55;;
77544;SDS011;66672;50.328;7.610;2024-02-28T05:39:41;53.35;;;35.58;;
77544;SDS011;66672;50.328;7.610;2024-02-28T05:42:06;56.17;;;35.35;;
77544;SDS011;66672;50.328;7.610;2024-02-28T05:44:31;59.03;;;36.28;;
77544;SDS011;66672;50.328;7.610;2024-02-28T05:46:56;64.00;;;36.97;;
77544;SDS011;66672;50.328;7.610;2024-02-28T05:49:22;68.53;;;37.63;;
77544;SDS011;66672;50.328;7.610;2024-02-28T05:51:47;60.22;;;36.67;;
77544;SDS011;66672;50.328;7.610;2024-02-28T05:54:13;62.47;;;39.70;;
77544;SDS011;66672;50.328;7.610;2024-02-28T05:56:38;60.20;;;35.75;;
77544;SDS011;66672;50.328;7.610;2024-02-28T05:59:03;54.72;;;36.03;;
77544;SDS011;66672;50.328;7.610;2024-02-28T06:01:28;54.28;;;35.47;;
77544;SDS011;66672;50.328;7.610;2024-02-28T06:03:54;55.17;;;35.35;;
77544;SDS011;66672;50.328;7.610;2024-02-28T06:06:19;55.72;;;36.08;;
77544;SDS011;66672;50.328;7.610;2024-02-28T06:08:44;61.58;;;35.50;;
77544;SDS011;66672;50.328;7.610;2024-02-28T06:11:09;64.95;;;38.13;;
77544;SDS011;66672;50.328;7.610;2024-02-28T06:13:35;56.85;;;37.85;;
77544;SDS011;66672;50.328;7.610;2024-02-28T06:16:00;64.32;;;37.83;;
77544;SDS011;66672;50.328;7.610;2024-02-28T06:18:25;65.55;;;38.25;;
77544;SDS011;66672;50.328;7.610;2024-02-28T06:20:54;60.05;;;38.50;;
77544;SDS011;66672;50.328;7.610;2024-02-28T06:23:20;60.63;;;37.13;;
77544;SDS011;66672;50.328;7.610;2024-02-28T06:25:45;58.08;;;36.58;;
77544;SDS011;66672;50.328;7.610;2024-02-28T06:28:10;60.17;;;36.97;;
77544;SDS011;66672;50.328;7.610;2024-02-28T06:30:35;55.13;;;35.50;;
77544;SDS011;66672;50.328;7.610;2024-02-28T06:33:01;64.65;;;38.45;;
77544;SDS011;66672;50.328;7.610;2024-02-28T06:35:26;61.13;;;37.38;;
77544;SDS011;66672;50.328;7.610;2024-02-28T06:37:51;63.53;;;37.15;;
77544;SDS011;66672;50.328;7.610;2024-02-28T06:40:16;63.75;;;37.70;;
77544;SDS011;66672;50.328;7.610;2024-02-28T06:42:42;65.28;;;37.47;;
77544;SDS011;66672;50.328;7.610;2024-02-28T06:45:07;68.97;;;38.53;;
77544;SDS011;66672;50.328;7.610;2024-02-28T06:47:33;87.25;;;52.75;;
77544;SDS011;66672;50.328;7.610;2024-02-28T06:49:58;73.30;;;41.03;;
77544;SDS011;66672;50.328;7.610;2024-02-28T06:52:23;65.15;;;39.40;;
77544;SDS011;66672;50.328;7.610;2024-02-28T06:54:49;65.72;;;38.75;;
77544;SDS011;66672;50.328;7.610;2024-02-28T06:57:14;62.35;;;38.33;;
77544;SDS011;66672;50.328;7.610;2024-02-28T06:59:39;67.53;;;39.43;;
77544;SDS011;66672;50.328;7.610;2024-02-28T07:02:07;67.28;;;40.03;;
77544;SDS011;66672;50.328;7.610;2024-02-28T07:04:32;60.40;;;37.08;;
77544;SDS011;66672;50.328;7.610;2024-02-28T07:06:58;61.63;;;37.92;;
77544;SDS011;66672;50.328;7.610;2024-02-28T07:09:23;62.58;;;37.30;;
77544;SDS011;66672;50.328;7.610;2024-02-28T07:11:50;68.20;;;39.45;;
77544;SDS011;66672;50.328;7.610;2024-02-28T07:14:16;63.75;;;39.08;;
77544;SDS011;66672;50.328;7.610;2024-02-28T07:16:41;64.35;;;38.47;;
77544;SDS011;66672;50.328;7.610;2024-02-28T07:19:06;56.85;;;35.97;;
77544;SDS011;66672;50.328;7.610;2024-02-28T07:21:32;59.60;;;37.78;;
77544;SDS011;66672;50.328;7.610;2024-02-28T07:23:58;63.72;;;42.17;;
77544;SDS011;66672;50.328;7.610;2024-02-28T07:26:23;59.47;;;37.78;;
77544;SDS011;66672;50.328;7.610;2024-02-28T07:28:48;61.38;;;36.78;;
77544;SDS011;66672;50.328;7.610;2024-02-28T07:31:17;64.75;;;40.53;;
77544;SDS011;66672;50.328;7.610;2024-02-28T07:33:42;65.82;;;40.30;;
77544;SDS011;66672;50.328;7.610;2024-02-28T07:36:07;59.30;;;38.50;;
77544;SDS011;66672;50.328;7.610;2024-02-28T07:38:33;63.65;;;38.92;;
77544;SDS011;66672;50.328;7.610;2024-02-28T07:40:58;59.40;;;37.90;;
77544;SDS011;66672;50.328;7.610;2024-02-28T07:43:23;57.53;;;37.03;;
77544;SDS011;66672;50.328;7.610;2024-02-28T07:45:49;60.55;;;37.90;;
77544;SDS011;66672;50.328;7.610;2024-02-28T07:48:14;59.47;;;37.05;;
77544;SDS011;66672;50.328;7.610;2024-02-28T07:50:45;65.53;;;39.17;;
77544;SDS011;66672;50.328;7.610;2024-02-28T07:53:10;59.35;;;39.03;;
77544;SDS011;66672;50.328;7.610;2024-02-28T07:55:36;64.40;;;38.03;;
77544;SDS011;66672;50.328;7.610;2024-02-28T07:58:01;63.47;;;36.70;;
77544;SDS011;66672;50.328;7.610;2024-02-28T08:00:26;58.88;;;37.25;;
77544;SDS011;66672;50.328;7.610;2024-02-28T08:02:52;65.40;;;37.72;;
77544;SDS011;66672;50.328;7.610;2024-02-28T08:05:17;57.80;;;35.65;;
77544;SDS011;66672;50.328;7.610;2024-02-28T08:07:43;68.43;;;38.67;;
77544;SDS011;66672;50.328;7.610;2024-02-28T08:10:09;62.30;;;37.43;;
77544;SDS011;66672;50.328;7.610;2024-02-28T08:12:35;62.97;;;38.77;;
77544;SDS011;66672;50.328;7.610;2024-02-28T08:15:00;54.67;;;34.67;;
77544;SDS011;66672;50.328;7.610;2024-02-28T08:17:26;58.65;;;37.05;;
77544;SDS011;66672;50.328;7.610;2024-02-28T08:19:51;59.53;;;37.05;;
77544;SDS011;66672;50.328;7.610;2024-02-28T08:22:16;59.90;;;39.43;;
77544;SDS011;66672;50.328;7.610;2024-02-28T08:24:41;68.18;;;39.33;;
77544;SDS011;66672;50.328;7.610;2024-02-28T08:27:06;63.72;;;37.67;;
77544;SDS011;66672;50.328;7.610;2024-02-28T08:29:32;61.33;;;37.40;;
77544;SDS011;66672;50.328;7.610;2024-02-28T08:31:58;64.57;;;38.83;;
77544;SDS011;66672;50.328;7.610;2024-02-28T08:34:23;57.88;;;35.97;;
77544;SDS011;66672;50.328;7.610;2024-02-28T08:36:48;60.75;;;37.58;;
77544;SDS011;66672;50.328;7.610;2024-02-28T08:39:13;60.40;;;37.22;;
77544;SDS011;66672;50.328;7.610;2024-02-28T08:41:39;58.10;;;36.10;;
77544;SDS011;66672;50.328;7.610;2024-02-28T08:44:04;56.08;;;36.00;;
77544;SDS011;66672;50.328;7.610;2024-02-28T08:46:32;62.80;;;37.40;;
77544;SDS011;66672;50.328;7.610;2024-02-28T08:48:57;63.05;;;38.15;;
77544;SDS011;66672;50.328;7.610;2024-02-28T08:51:23;56.93;;;36.20;;
77544;SDS011;66672;50.328;7.610;2024-02-28T08:53:48;62.47;;;35.90;;
77544;SDS011;66672;50.328;7.610;2024-02-28T08:56:13;59.28;;;38.83;;
77544;SDS011;66672;50.328;7.610;2024-02-28T08:58:38;55.90;;;35.33;;
77544;SDS011;66672;50.328;7.610;2024-02-28T09:01:03;57.08;;;37.03;;
77544;SDS011;66672;50.328;7.610;2024-02-28T09:03:29;56.65;;;35.03;;
77544;SDS011;66672;50.328;7.610;2024-02-28T09:05:54;51.63;;;35.23;;
77544;SDS011;66672;50.328;7.610;2024-02-28T09:08:21;53.75;;;35.85;;
77544;SDS011;66672;50.328;7.610;2024-02-28T09:10:46;52.45;;;34.92;;
77544;SDS011;66672;50.328;7.610;2024-02-28T09:13:12;55.95;;;34.42;;
77544;SDS011;66672;50.328;7.610;2024-02-28T09:15:37;59.47;;;36.05;;
77544;SDS011;66672;50.328;7.610;2024-02-28T09:18:02;58.40;;;35.73;;
77544;SDS011;66672;50.328;7.610;2024-02-28T09:20:28;55.17;;;35.35;;
77544;SDS011;66672;50.328;7.610;2024-02-28T09:22:53;55.25;;;35.83;;
77544;SDS011;66672;50.328;7.610;2024-02-28T09:25:18;53.72;;;33.00;;
77544;SDS011;66672;50.328;7.610;2024-02-28T09:27:46;53.08;;;35.33;;
77544;SDS011;66672;50.328;7.610;2024-02-28T09:30:11;57.00;;;35.30;;
77544;SDS011;66672;50.328;7.610;2024-02-28T09:32:36;55.67;;;34.90;;
77544;SDS011;66672;50.328;7.610;2024-02-28T09:35:04;50.45;;;34.28;;
77544;SDS011;66672;50.328;7.610;2024-02-28T09:37:30;59.13;;;35.15;;
77544;SDS011;66672;50.328;7.610;2024-02-28T09:39:56;60.65;;;36.10;;
77544;SDS011;66672;50.328;7.610;2024-02-28T09:42:22;59.10;;;37.13;;
77544;SDS011;66672;50.328;7.610;2024-02-28T09:44:47;56.25;;;35.78;;
77544;SDS011;66672;50.328;7.610;2024-02-28T09:47:12;49.88;;;34.35;;
77544;SDS011;66672;50.328;7.610;2024-02-28T09:49:38;55.22;;;34.90;;
77544;SDS011;66672;50.328;7.610;2024-02-28T09:52:03;54.35;;;36.33;;
77544;SDS011;66672;50.328;7.610;2024-02-28T09:54:29;56.47;;;35.50;;
77544;SDS011;66672;50.328;7.610;2024-02-28T09:56:54;56.30;;;34.97;;
77544;SDS011;66672;50.328;7.610;2024-02-28T09:59:20;56.03;;;34.85;;
77544;SDS011;66672;50.328;7.610;2024-02-28T10:01:47;55.80;;;37.30;;
77544;SDS011;66672;50.328;7.610;2024-02-28T10:04:14;59.75;;;36.65;;
77544;SDS011;66672;50.328;7.610;2024-02-28T10:06:39;60.27;;;34.77;;
77544;SDS011;66672;50.328;7.610;2024-02-28T10:09:05;55.17;;;35.65;;
77544;SDS011;66672;50.328;7.610;2024-02-28T10:11:30;60.20;;;36.45;;
77544;SDS011;66672;50.328;7.610;2024-02-28T10:13:55;60.13;;;37.53;;
77544;SDS011;66672;50.328;7.610;2024-02-28T10:16:20;55.33;;;33.78;;
77544;SDS011;66672;50.328;7.610;2024-02-28T10:18:46;55.63;;;35.95;;
77544;SDS011;66672;50.328;7.610;2024-02-28T10:21:11;59.55;;;37.80;;
77544;SDS011;66672;50.328;7.610;2024-02-28T10:23:43;54.47;;;35.22;;
77544;SDS011;66672;50.328;7.610;2024-02-28T10:26:09;57.03;;;35.20;;
77544;SDS011;66672;50.328;7.610;2024-02-28T10:28:36;55.55;;;35.95;;
77544;SDS011;66672;50.328;7.610;2024-02-28T10:31:01;56.08;;;35.30;;
77544;SDS011;66672;50.328;7.610;2024-02-28T10:33:27;56.75;;;35.33;;
77544;SDS011;66672;50.328;7.610;2024-02-28T10:35:55;59.10;;;35.50;;
77544;SDS011;66672;50.328;7.610;2024-02-28T10:38:20;56.58;;;34.97;;
77544;SDS011;66672;50.328;7.610;2024-02-28T10:40:46;63.17;;;36.35;;
77544;SDS011;66672;50.328;7.610;2024-02-28T10:43:12;60.72;;;35.78;;
77544;SDS011;66672;50.328;7.610;2024-02-28T10:45:37;58.63;;;35.92;;
77544;SDS011;66672;50.328;7.610;2024-02-28T10:48:03;58.05;;;33.78;;
77544;SDS011;66672;50.328;7.610;2024-02-28T10:50:29;59.47;;;37.60;;
77544;SDS011;66672;50.328;7.610;2024-02-28T10:52:54;57.53;;;37.45;;
77544;SDS011;66672;50.328;7.610;2024-02-28T10:55:25;60.67;;;36.03;;
77544;SDS011;66672;50.328;7.610;2024-02-28T10:58:02;59.35;;;35.55;;
77544;SDS011;66672;50.328;7.610;2024-02-28T11:00:28;63.78;;;37.88;;
77544;SDS011;66672;50.328;7.610;2024-02-28T11:02:54;58.85;;;36.70;;
77544;SDS011;66672;50.328;7.610;2024-02-28T11:05:20;56.03;;;34.53;;
77544;SDS011;66672;50.328;7.610;2024-02-28T11:07:45;58.40;;;34.88;;
77544;SDS011;66672;50.328;7.610;2024-02-28T11:10:10;54.45;;;35.83;;
77544;SDS011;66672;50.328;7.610;2024-02-28T11:12:37;53.83;;;34.03;;
77544;SDS011;66672;50.328;7.610;2024-02-28T11:15:03;57.83;;;36.60;;
77544;SDS011;66672;50.328;7.610;2024-02-28T11:17:31;58.38;;;35.75;;
77544;SDS011;66672;50.328;7.610;2024-02-28T11:19:57;53.75;;;34.90;;
77544;SDS011;66672;50.328;7.610;2024-02-28T11:22:22;55.13;;;34.17;;
77544;SDS011;66672;50.328;7.610;2024-02-28T11:24:47;56.63;;;35.45;;
77544;SDS011;66672;50.328;7.610;2024-02-28T11:27:13;56.38;;;34.55;;
77544;SDS011;66672;50.328;7.610;2024-02-28T11:29:39;55.22;;;35.22;;
77544;SDS011;66672;50.328;7.610;2024-02-28T11:32:07;55.15;;;33.97;;
77544;SDS011;66672;50.328;7.610;2024-02-28T11:34:35;48.80;;;32.65;;
77544;SDS011;66672;50.328;7.610;2024-02-28T11:37:01;60.22;;;34.50;;
77544;SDS011;66672;50.328;7.610;2024-02-28T11:39:26;58.90;;;34.80;;
77544;SDS011;66672;50.328;7.610;2024-02-28T11:41:51;50.00;;;34.17;;
77544;SDS011;66672;50.328;7.610;2024-02-28T11:44:17;50.15;;;33.67;;
77544;SDS011;66672;50.328;7.610;2024-02-28T11:46:46;54.78;;;35.50;;
77544;SDS011;66672;50.328;7.610;2024-02-28T11:49:14;52.60;;;33.33;;
77544;SDS011;66672;50.328;7.610;2024-02-28T11:51:40;50.75;;;33.25;;
77544;SDS011;66672;50.328;7.610;2024-02-28T11:54:07;51.17;;;34.28;;
77544;SDS011;66672;50.328;7.610;2024-02-28T11:56:32;50.65;;;33.05;;
77544;SDS011;66672;50.328;7.610;2024-02-28T11:58:58;49.40;;;32.83;;
77544;SDS011;66672;50.328;7.610;2024-02-28T12:04:17;48.03;;;31.30;;
77544;SDS011;66672;50.328;7.610;2024-02-28T12:06:42;52.22;;;33.75;;
77544;SDS011;66672;50.328;7.610;2024-02-28T12:09:09;50.47;;;34.05;;
77544;SDS011;66672;50.328;7.610;2024-02-28T12:11:35;50.13;;;34.28;;
77544;SDS011;66672;50.328;7.610;2024-02-28T12:14:02;49.10;;;34.03;;
77544;SDS011;66672;50.328;7.610;2024-02-28T12:16:28;46.40;;;34.85;;
77544;SDS011;66672;50.328;7.610;2024-02-28T12:18:54;46.15;;;32.90;;
77544;SDS011;66672;50.328;7.610;2024-02-28T12:21:20;46.70;;;33.38;;
77544;SDS011;66672;50.328;7.610;2024-02-28T12:23:46;41.08;;;30.67;;
77544;SDS011;66672;50.328;7.610;2024-02-28T12:26:11;42.45;;;31.70;;
77544;SDS011;66672;50.328;7.610;2024-02-28T12:28:36;44.75;;;33.53;;
77544;SDS011;66672;50.328;7.610;2024-02-28T12:31:01;43.10;;;32.40;;
77544;SDS011;66672;50.328;7.610;2024-02-28T12:33:27;42.70;;;33.67;;
77544;SDS011;66672;50.328;7.610;2024-02-28T12:35:52;40.55;;;31.73;;
77544;SDS011;66672;50.328;7.610;2024-02-28T12:38:17;40.90;;;33.40;;
77544;SDS011;66672;50.328;7.610;2024-02-28T12:40:42;43.70;;;33.58;;
77544;SDS011;66672;50.328;7.610;2024-02-28T12:43:07;42.95;;;33.65;;
77544;SDS011;66672;50.328;7.610;2024-02-28T12:45:33;40.00;;;32.58;;
77544;SDS011;66672;50.328;7.610;2024-02-28T12:47:58;39.67;;;31.40;;
77544;SDS011;66672;50.328;7.610;2024-02-28T12:50:23;40.63;;;33.65;;
77544;SDS011;66672;50.328;7.610;2024-02-28T12:52:49;40.90;;;32.80;;
77544;SDS011;66672;50.328;7.610;2024-02-28T12:55:18;31.98;;;27.95;;
77544;SDS011;66672;50.328;7.610;2024-02-28T12:57:43;36.78;;;28.58;;
77544;SDS011;66672;50.328;7.610;2024-02-28T13:00:09;33.20;;;28.55;;
77544;SDS011;66672;50.328;7.610;2024-02-28T13:02:34;35.45;;;30.17;;
77544;SDS011;66672;50.328;7.610;2024-02-28T13:05:02;35.92;;;30.38;;
77544;SDS011;66672;50.328;7.610;2024-02-28T13:07:27;35.25;;;29.45;;
77544;SDS011;66672;50.328;7.610;2024-02-28T13:09:54;33.20;;;29.25;;
77544;SDS011;66672;50.328;7.610;2024-02-28T13:12:20;31.17;;;27.17;;
77544;SDS011;66672;50.328;7.610;2024-02-28T13:14:45;29.60;;;26.52;;
77544;SDS011;66672;50.328;7.610;2024-02-28T13:17:10;30.08;;;26.73;;
77544;SDS011;66672;50.328;7.610;2024-02-28T13:19:36;33.20;;;27.42;;
77544;SDS011;66672;50.328;7.610;2024-02-28T13:22:01;32.22;;;27.92;;
77544;SDS011;66672;50.328;7.610;2024-02-28T13:24:26;32.00;;;26.42;;
77544;SDS011;66672;50.328;7.610;2024-02-28T13:26:51;27.88;;;24.25;;
77544;SDS011;66672;50.328;7.610;2024-02-28T13:29:17;25.10;;;22.48;;
77544;SDS011;66672;50.328;7.610;2024-02-28T13:31:42;23.23;;;21.00;;
77544;SDS011;66672;50.328;7.610;2024-02-28T13:34:07;22.17;;;19.90;;
77544;SDS011;66672;50.328;7.610;2024-02-28T13:36:32;23.48;;;21.25;;
77544;SDS011;66672;50.328;7.610;2024-02-28T13:39:01;23.48;;;21.17;;
77544;SDS011;66672;50.328;7.610;2024-02-28T13:41:26;20.05;;;18.50;;
77544;SDS011;66672;50.328;7.610;2024-02-28T13:43:51;21.60;;;19.80;;
77544;SDS011;66672;50.328;7.610;2024-02-28T13:46:16;22.17;;;20.08;;
77544;SDS011;66672;50.328;7.610;2024-02-28T13:48:44;21.60;;;19.65;;
77544;SDS011;66672;50.328;7.610;2024-02-28T13:51:09;23.92;;;20.48;;
77544;SDS011;66672;50.328;7.610;2024-02-28T13:53:35;22.23;;;20.10;;
77544;SDS011;66672;50.328;7.610;2024-02-28T13:56:00;22.23;;;20.13;;
77544;SDS011;66672;50.328;7.610;2024-02-28T13:58:25;22.58;;;20.48;;
77544;SDS011;66672;50.328;7.610;2024-02-28T14:00:51;24.80;;;22.10;;
77544;SDS011;66672;50.328;7.610;2024-02-28T14:03:16;25.77;;;23.10;;
77544;SDS011;66672;50.328;7.610;2024-02-28T14:05:41;25.08;;;22.67;;
77544;SDS011;66672;50.328;7.610;2024-02-28T14:08:06;25.73;;;23.02;;
77544;SDS011;66672;50.328;7.610;2024-02-28T14:10:37;24.67;;;22.17;;
77544;SDS011;66672;50.328;7.610;2024-02-28T14:13:02;26.08;;;23.00;;